createdAt,value
2023-12-07T00:00:42.858Z,52.32
2023-12-07T00:01:42.991Z,53.63
2023-12-07T00:02:42.922Z,54.14
2023-12-07T00:03:43.035Z,54.55
2023-12-07T00:04:42.958Z,54.14
2023-12-07T00:05:43.002Z,53.49
2023-12-07T00:06:42.987Z,54.66
2023-12-07T00:07:43.024Z,53.25
2023-12-07T00:08:43.081Z,52.81
2023-12-07T00:09:43.110Z,52.92
2023-12-07T00:10:43.150Z,52.87
2023-12-07T00:11:43.158Z,55.80
2023-12-07T00:12:43.206Z,54.31
2023-12-07T00:13:43.191Z,53.30
2023-12-07T00:14:43.225Z,53.20
2023-12-07T00:15:43.257Z,54.97
2023-12-07T00:16:43.313Z,53.54
2023-12-07T00:17:43.347Z,52.43
2023-12-07T00:18:43.412Z,53.34
2023-12-07T00:19:43.409Z,53.50
2023-12-07T00:20:43.444Z,54.58
2023-12-07T00:21:43.481Z,53.07
2023-12-07T00:22:43.529Z,50.00
2023-12-07T00:23:43.513Z,53.14
2023-12-07T00:24:43.534Z,51.89
2023-12-07T00:25:43.573Z,52.32
2023-12-07T00:26:43.634Z,52.12
2023-12-07T00:27:43.628Z,54.54
2023-12-07T00:28:43.653Z,53.14
2023-12-07T00:29:43.683Z,53.13
2023-12-07T00:30:43.730Z,52.34
2023-12-07T00:31:43.739Z,51.26
2023-12-07T00:32:43.778Z,51.25
2023-12-07T00:33:43.784Z,52.38
2023-12-07T00:34:43.847Z,55.96
2023-12-07T00:35:43.840Z,55.85
2023-12-07T00:36:43.868Z,54.22
2023-12-07T00:37:43.904Z,51.98
2023-12-07T00:38:43.985Z,51.57
2023-12-07T00:39:43.971Z,53.53
2023-12-07T00:40:44.006Z,52.13
2023-12-07T00:41:44.041Z,54.50
2023-12-07T00:42:46.802Z,51.83
2023-12-07T00:43:44.805Z,53.08
2023-12-07T00:44:44.140Z,52.46
2023-12-07T00:45:44.078Z,54.44
2023-12-07T00:46:44.086Z,51.46
2023-12-07T00:47:44.082Z,52.73
2023-12-07T00:48:44.161Z,53.74
2023-12-07T00:49:44.217Z,53.87
2023-12-07T00:50:44.091Z,51.22
2023-12-07T00:51:44.125Z,53.47
2023-12-07T00:52:44.110Z,51.99
2023-12-07T00:53:44.176Z,52.82
2023-12-07T00:54:44.105Z,51.51
2023-12-07T00:55:44.121Z,54.15
2023-12-07T00:56:44.087Z,52.82
2023-12-07T00:57:44.114Z,53.26
2023-12-07T00:58:44.109Z,54.38
2023-12-07T00:59:44.098Z,56.28
2023-12-07T01:00:44.113Z,51.82
2023-12-07T01:01:44.101Z,52.69
2023-12-07T01:02:44.112Z,53.55
2023-12-07T01:03:44.116Z,53.69
2023-12-07T01:04:44.207Z,52.80
2023-12-07T01:05:44.232Z,52.10
2023-12-07T01:06:44.164Z,55.38
2023-12-07T01:07:44.150Z,53.01
2023-12-07T01:08:44.126Z,51.87
2023-12-07T01:09:44.108Z,55.55
2023-12-07T01:10:44.119Z,52.96
2023-12-07T01:11:44.120Z,51.78
2023-12-07T01:12:44.143Z,54.42
2023-12-07T01:13:44.117Z,55.41
2023-12-07T01:14:44.120Z,53.98
2023-12-07T01:15:44.114Z,54.73
2023-12-07T01:16:44.126Z,50.94
2023-12-07T01:17:44.119Z,54.03
2023-12-07T01:18:44.214Z,51.18
2023-12-07T01:19:44.125Z,53.10
2023-12-07T01:20:44.125Z,52.24
2023-12-07T01:21:44.125Z,50.00
2023-12-07T01:22:44.148Z,52.11
2023-12-07T01:23:44.304Z,54.87
2023-12-07T01:24:44.245Z,53.78
2023-12-07T01:25:44.188Z,53.77
2023-12-07T01:26:44.137Z,50.76
2023-12-07T01:27:44.155Z,54.64
2023-12-07T01:28:44.126Z,53.82
2023-12-07T01:29:44.160Z,54.18
2023-12-07T01:30:44.170Z,52.46
2023-12-07T01:31:44.133Z,53.41
2023-12-07T01:32:44.159Z,54.81
2023-12-07T01:33:44.297Z,51.75
2023-12-07T01:34:44.206Z,55.05
2023-12-07T01:35:44.238Z,51.54
2023-12-07T01:36:44.289Z,54.70
2023-12-07T01:37:44.358Z,54.13
2023-12-07T01:38:44.417Z,54.95
2023-12-07T01:39:44.482Z,53.74
2023-12-07T01:40:46.660Z,53.18
2023-12-07T01:41:44.647Z,53.96
2023-12-07T01:42:44.665Z,55.26
2023-12-07T01:43:44.757Z,54.70
2023-12-07T01:44:44.810Z,55.25
2023-12-07T01:45:44.946Z,53.72
2023-12-07T01:46:44.946Z,53.99
2023-12-07T01:47:45.171Z,53.39
2023-12-07T01:48:45.234Z,53.33
2023-12-07T01:49:45.209Z,54.67
2023-12-07T01:50:45.183Z,52.67
2023-12-07T01:51:45.247Z,51.43
2023-12-07T01:52:45.337Z,52.21
2023-12-07T01:53:45.374Z,55.82
2023-12-07T01:54:45.445Z,55.71
2023-12-07T01:55:45.511Z,52.26
2023-12-07T01:56:45.572Z,52.18
2023-12-07T01:57:45.733Z,54.26
2023-12-07T01:58:45.783Z,51.66
2023-12-07T01:59:45.729Z,53.58
2023-12-07T02:00:45.838Z,54.79
2023-12-07T02:01:46.023Z,53.99
2023-12-07T02:02:45.905Z,51.60
2023-12-07T02:03:46.122Z,53.37
2023-12-07T02:04:46.106Z,53.52
2023-12-07T02:05:46.858Z,53.86
2023-12-07T02:06:46.112Z,55.56
2023-12-07T02:07:46.167Z,53.53
2023-12-07T02:08:46.231Z,50.61
2023-12-07T02:09:46.273Z,53.69
2023-12-07T02:10:46.363Z,52.21
2023-12-07T02:11:46.389Z,53.04
2023-12-07T02:12:46.431Z,56.02
2023-12-07T02:13:46.464Z,54.15
2023-12-07T02:14:46.502Z,53.14
2023-12-07T02:15:46.585Z,55.67
2023-12-07T02:16:46.598Z,54.62
2023-12-07T02:17:46.690Z,52.63
2023-12-07T02:18:46.704Z,53.63
2023-12-07T02:19:46.784Z,52.46
2023-12-07T02:20:47.330Z,52.86
2023-12-07T02:21:46.817Z,52.55
2023-12-07T02:22:46.881Z,54.64
2023-12-07T02:23:52.196Z,53.01
2023-12-07T02:24:47.895Z,53.05
2023-12-07T02:25:46.989Z,52.61
2023-12-07T02:26:46.952Z,53.60
2023-12-07T02:27:46.922Z,51.83
2023-12-07T02:28:46.897Z,53.90
2023-12-07T02:29:46.895Z,53.27
2023-12-07T02:30:46.907Z,53.05
2023-12-07T02:31:46.909Z,52.78
2023-12-07T02:32:46.967Z,54.59
2023-12-07T02:33:47.178Z,52.21
2023-12-07T02:34:46.940Z,52.01
2023-12-07T02:35:46.910Z,52.66
2023-12-07T02:36:46.912Z,52.06
2023-12-07T02:37:46.915Z,53.82
2023-12-07T02:38:46.915Z,51.09
2023-12-07T02:39:47.839Z,51.76
2023-12-07T02:40:46.970Z,54.55
2023-12-07T02:41:46.983Z,53.04
2023-12-07T02:42:47.110Z,53.65
2023-12-07T02:43:47.076Z,51.15
2023-12-07T02:44:47.103Z,53.02
2023-12-07T02:45:47.162Z,53.04
2023-12-07T02:46:47.184Z,52.79
2023-12-07T02:47:47.260Z,53.59
2023-12-07T02:48:47.271Z,50.34
2023-12-07T02:49:47.349Z,51.21
2023-12-07T02:50:47.322Z,52.29
2023-12-07T02:51:47.356Z,52.26
2023-12-07T02:52:47.449Z,52.90
2023-12-07T02:53:47.423Z,51.99
2023-12-07T02:54:47.481Z,52.25
2023-12-07T02:55:47.482Z,52.16
2023-12-07T02:56:47.514Z,50.53
2023-12-07T02:57:48.346Z,54.35
2023-12-07T02:58:47.587Z,52.72
2023-12-07T02:59:47.625Z,51.28
2023-12-07T03:00:47.658Z,51.59
2023-12-07T03:01:47.709Z,51.29
2023-12-07T03:02:47.717Z,51.86
2023-12-07T03:03:47.811Z,52.17
2023-12-07T03:04:47.821Z,52.10
2023-12-07T03:05:47.874Z,52.25
2023-12-07T03:06:47.870Z,51.47
2023-12-07T03:07:47.890Z,54.30
2023-12-07T03:08:47.943Z,51.47
2023-12-07T03:09:47.975Z,53.33
2023-12-07T03:10:48.001Z,54.33
2023-12-07T03:11:48.033Z,52.46
2023-12-07T03:12:48.846Z,50.85
2023-12-07T03:13:48.180Z,54.45
2023-12-07T03:14:48.146Z,52.99
2023-12-07T03:15:48.865Z,50.34
2023-12-07T03:16:48.197Z,51.82
2023-12-07T03:17:48.285Z,52.40
2023-12-07T03:18:48.322Z,53.33
2023-12-07T03:19:48.355Z,52.12
2023-12-07T03:20:48.320Z,52.60
2023-12-07T03:21:48.347Z,55.05
2023-12-07T03:22:48.502Z,52.00
2023-12-07T03:23:48.403Z,50.68
2023-12-07T03:24:48.436Z,52.16
2023-12-07T03:25:48.464Z,50.71
2023-12-07T03:26:48.488Z,51.44
2023-12-07T03:27:48.492Z,50.99
2023-12-07T03:28:48.525Z,53.45
2023-12-07T03:29:48.559Z,52.16
2023-12-07T03:30:48.577Z,52.10
2023-12-07T03:31:48.604Z,51.27
2023-12-07T03:32:48.640Z,52.50
2023-12-07T03:33:48.678Z,50.87
2023-12-07T03:34:48.791Z,52.52
2023-12-07T03:35:49.359Z,50.43
2023-12-07T03:36:49.401Z,50.00
2023-12-07T03:37:48.793Z,52.01
2023-12-07T03:38:48.885Z,52.51
2023-12-07T03:39:48.825Z,53.72
2023-12-07T03:40:48.866Z,55.96
2023-12-07T03:41:48.883Z,54.21
2023-12-07T03:42:55.924Z,52.49
2023-12-07T03:43:49.985Z,52.67
2023-12-07T03:44:48.916Z,52.69
2023-12-07T03:45:48.942Z,53.27
2023-12-07T03:46:49.006Z,53.35
2023-12-07T03:47:48.989Z,54.52
2023-12-07T03:48:48.966Z,52.44
2023-12-07T03:49:49.036Z,50.71
2023-12-07T03:50:48.928Z,52.51
2023-12-07T03:51:48.936Z,54.95
2023-12-07T03:52:48.999Z,52.12
2023-12-07T03:53:50.921Z,53.23
2023-12-07T03:54:48.938Z,51.91
2023-12-07T03:55:48.936Z,51.63
2023-12-07T03:56:48.932Z,50.97
2023-12-07T03:57:48.936Z,54.37
2023-12-07T03:58:48.929Z,53.17
2023-12-07T03:59:48.938Z,51.70
2023-12-07T04:00:48.937Z,53.57
2023-12-07T04:01:48.969Z,53.79
2023-12-07T04:02:48.960Z,50.06
2023-12-07T04:03:49.017Z,54.86
2023-12-07T04:04:48.956Z,52.55
2023-12-07T04:05:48.991Z,54.33
2023-12-07T04:06:48.935Z,51.66
2023-12-07T04:07:49.875Z,54.13
2023-12-07T04:08:48.936Z,51.93
2023-12-07T04:09:48.946Z,50.87
2023-12-07T04:10:48.935Z,55.11
2023-12-07T04:11:48.936Z,53.28
2023-12-07T04:12:48.933Z,51.04
2023-12-07T04:13:48.939Z,53.73
2023-12-07T04:14:48.933Z,52.62
2023-12-07T04:15:49.002Z,54.66
2023-12-07T04:16:48.926Z,53.36
2023-12-07T04:17:48.954Z,52.10
2023-12-07T04:18:48.968Z,52.84
2023-12-07T04:19:49.021Z,52.57
2023-12-07T04:20:48.933Z,52.41
2023-12-07T04:21:48.939Z,54.47
2023-12-07T04:22:48.957Z,52.22
2023-12-07T04:23:48.932Z,51.50
2023-12-07T04:24:49.002Z,52.84
2023-12-07T04:25:48.938Z,50.91
2023-12-07T04:26:48.936Z,52.03
2023-12-07T04:27:56.189Z,50.00
2023-12-07T04:28:56.253Z,50.00
2023-12-07T04:29:56.187Z,50.00
2023-12-07T04:30:56.187Z,50.00
2023-12-07T04:32:03.414Z,50.00
2023-12-07T04:33:03.631Z,50.00
2023-12-07T04:34:03.555Z,50.00
2023-12-07T04:35:03.525Z,50.00
2023-12-07T04:36:03.474Z,50.00
2023-12-07T04:37:03.504Z,50.18
2023-12-07T04:38:03.480Z,52.17
2023-12-07T04:39:03.490Z,50.00
2023-12-07T04:40:03.545Z,53.09
2023-12-07T04:41:03.517Z,55.47
2023-12-07T04:42:03.484Z,50.48
2023-12-07T04:43:03.550Z,51.62
2023-12-07T04:44:03.486Z,52.14
2023-12-07T04:45:03.492Z,53.02
2023-12-07T04:46:03.523Z,52.71
2023-12-07T04:47:03.492Z,51.86
2023-12-07T04:48:03.607Z,51.62
2023-12-07T04:49:03.538Z,52.19
2023-12-07T04:50:03.477Z,50.00
2023-12-07T04:51:03.489Z,52.43
2023-12-07T04:52:03.557Z,51.64
2023-12-07T04:53:03.484Z,52.10
2023-12-07T04:54:12.488Z,51.75
2023-12-07T04:55:04.530Z,51.83
2023-12-07T04:56:03.501Z,52.09
2023-12-07T04:57:03.491Z,52.29
2023-12-07T04:58:03.533Z,50.72
2023-12-07T04:59:03.495Z,50.52
2023-12-07T05:00:03.501Z,52.69
2023-12-07T05:01:03.569Z,52.12
2023-12-07T05:02:03.568Z,52.08
2023-12-07T05:03:03.587Z,54.12
2023-12-07T05:04:03.575Z,52.43
2023-12-07T05:05:03.568Z,52.83
2023-12-07T05:06:03.516Z,53.68
2023-12-07T05:07:03.607Z,51.58
2023-12-07T05:08:03.516Z,51.78
2023-12-07T05:09:03.513Z,52.96
2023-12-07T05:10:03.528Z,53.07
2023-12-07T05:11:03.516Z,51.91
2023-12-07T05:12:03.509Z,52.54
2023-12-07T05:13:03.579Z,51.04
2023-12-07T05:14:03.524Z,52.84
2023-12-07T05:15:03.555Z,54.47
2023-12-07T05:16:03.557Z,53.51
2023-12-07T05:17:03.603Z,52.33
2023-12-07T05:18:03.633Z,52.32
2023-12-07T05:19:03.637Z,53.15
2023-12-07T05:20:03.623Z,52.62
2023-12-07T05:21:03.664Z,55.25
2023-12-07T05:22:03.726Z,53.62
2023-12-07T05:23:03.699Z,53.30
2023-12-07T05:24:03.761Z,53.91
2023-12-07T05:25:03.828Z,51.26
2023-12-07T05:26:04.518Z,52.42
2023-12-07T05:27:03.782Z,54.42
2023-12-07T05:28:04.594Z,52.39
2023-12-07T05:29:03.889Z,53.39
2023-12-07T05:30:03.848Z,52.79
2023-12-07T05:31:03.932Z,52.16
2023-12-07T05:32:03.932Z,52.45
2023-12-07T05:33:04.007Z,50.00
2023-12-07T05:34:04.048Z,50.00
2023-12-07T05:35:03.939Z,52.37
2023-12-07T05:36:04.029Z,50.67
2023-12-07T05:37:04.008Z,51.47
2023-12-07T05:38:03.990Z,51.71
2023-12-07T05:39:04.107Z,53.01
2023-12-07T05:40:04.112Z,51.57
2023-12-07T05:41:04.061Z,51.10
2023-12-07T05:42:04.070Z,52.57
2023-12-07T05:43:04.156Z,52.49
2023-12-07T05:44:04.111Z,52.10
2023-12-07T05:45:04.125Z,50.30
2023-12-07T05:46:04.182Z,51.93
2023-12-07T05:47:04.531Z,51.58
2023-12-07T05:48:04.285Z,51.82
2023-12-07T05:49:04.301Z,51.21
2023-12-07T05:50:04.220Z,53.52
2023-12-07T05:51:04.231Z,51.40
2023-12-07T05:52:04.332Z,53.40
2023-12-07T05:53:04.263Z,48.15
2023-12-07T05:54:04.282Z,53.49
2023-12-07T05:55:04.362Z,52.47
2023-12-07T05:56:05.155Z,52.21
2023-12-07T05:57:04.333Z,52.99
2023-12-07T05:58:04.380Z,53.93
2023-12-07T05:59:04.375Z,52.49
2023-12-07T06:00:04.389Z,53.78
2023-12-07T06:01:04.546Z,51.57
2023-12-07T06:02:05.685Z,53.83
2023-12-07T06:03:05.076Z,54.72
2023-12-07T06:04:04.429Z,52.77
2023-12-07T06:05:04.446Z,53.25
2023-12-07T06:06:04.432Z,51.75
2023-12-07T06:07:04.452Z,52.70
2023-12-07T06:08:04.418Z,53.77
2023-12-07T06:09:04.425Z,51.59
2023-12-07T06:10:04.475Z,52.40
2023-12-07T06:11:04.428Z,52.09
2023-12-07T06:12:04.432Z,50.96
2023-12-07T06:13:04.516Z,52.69
2023-12-07T06:14:04.636Z,53.10
2023-12-07T06:15:04.438Z,51.23
2023-12-07T06:16:04.560Z,50.00
2023-12-07T06:17:04.430Z,52.03
2023-12-07T06:18:04.538Z,51.98
2023-12-07T06:19:04.541Z,49.95
2023-12-07T06:20:04.573Z,53.32
2023-12-07T06:21:04.450Z,53.03
2023-12-07T06:22:04.496Z,50.70
2023-12-07T06:23:04.442Z,50.80
2023-12-07T06:24:04.443Z,52.96
2023-12-07T06:25:04.457Z,51.69
2023-12-07T06:26:04.445Z,50.96
2023-12-07T06:27:04.461Z,52.53
2023-12-07T06:28:04.485Z,52.47
2023-12-07T06:29:04.441Z,50.38
2023-12-07T06:30:04.447Z,52.25
2023-12-07T06:31:04.489Z,53.08
2023-12-07T06:32:04.448Z,52.67
2023-12-07T06:33:04.502Z,50.95
2023-12-07T06:34:04.561Z,53.30
2023-12-07T06:35:04.590Z,53.74
2023-12-07T06:36:04.617Z,54.33
2023-12-07T06:37:04.580Z,53.16
2023-12-07T06:38:04.452Z,53.22
2023-12-07T06:39:04.466Z,54.49
2023-12-07T06:40:05.475Z,52.37
2023-12-07T06:41:04.469Z,53.54
2023-12-07T06:42:04.474Z,54.43
2023-12-07T06:43:04.508Z,53.04
2023-12-07T06:44:04.472Z,55.08
2023-12-07T06:45:04.457Z,55.42
2023-12-07T06:46:04.494Z,50.51
2023-12-07T06:47:04.483Z,54.52
2023-12-07T06:48:04.602Z,53.98
2023-12-07T06:49:04.584Z,55.51
2023-12-07T06:50:05.604Z,53.59
2023-12-07T06:51:04.476Z,53.67
2023-12-07T06:52:04.518Z,54.45
2023-12-07T06:53:04.490Z,54.79
2023-12-07T06:54:04.487Z,54.48
2023-12-07T06:55:04.542Z,53.51
2023-12-07T06:56:04.506Z,54.46
2023-12-07T06:57:04.566Z,54.64
2023-12-07T06:58:04.509Z,51.07
2023-12-07T06:59:04.478Z,53.80
2023-12-07T07:00:04.504Z,54.12
2023-12-07T07:01:04.571Z,54.41
2023-12-07T07:02:04.626Z,50.35
2023-12-07T07:03:04.496Z,53.12
2023-12-07T07:04:04.552Z,50.00
2023-12-07T07:05:04.739Z,52.14
2023-12-07T07:06:04.547Z,55.44
2023-12-07T07:07:04.559Z,54.56
2023-12-07T07:08:04.494Z,54.80
2023-12-07T07:09:04.501Z,53.37
2023-12-07T07:10:04.671Z,55.37
2023-12-07T07:11:04.523Z,54.41
2023-12-07T07:12:04.523Z,53.88
2023-12-07T07:13:04.571Z,53.47
2023-12-07T07:14:04.500Z,55.32
2023-12-07T07:15:04.507Z,54.46
2023-12-07T07:16:05.722Z,53.36
2023-12-07T07:17:04.504Z,56.38
2023-12-07T07:18:04.599Z,54.87
2023-12-07T07:19:04.597Z,53.56
2023-12-07T07:20:04.526Z,51.91
2023-12-07T07:21:04.509Z,54.27
2023-12-07T07:22:04.524Z,52.05
2023-12-07T07:23:04.509Z,54.93
2023-12-07T07:24:05.621Z,53.04
2023-12-07T07:25:04.615Z,53.11
2023-12-07T07:26:04.526Z,53.39
2023-12-07T07:27:04.544Z,54.59
2023-12-07T07:28:04.639Z,54.13
2023-12-07T07:29:04.623Z,57.26
2023-12-07T07:30:04.615Z,57.29
2023-12-07T07:31:04.701Z,57.16
2023-12-07T07:32:05.558Z,58.27
2023-12-07T07:33:04.847Z,61.43
2023-12-07T07:34:04.978Z,62.59
2023-12-07T07:35:04.976Z,67.08
2023-12-07T07:36:04.989Z,64.93
2023-12-07T07:37:05.989Z,67.06
2023-12-07T07:38:05.081Z,69.33
2023-12-07T07:39:05.980Z,68.71
2023-12-07T07:40:05.180Z,71.71
2023-12-07T07:41:05.244Z,73.16
2023-12-07T07:42:05.245Z,73.79
2023-12-07T07:43:05.337Z,75.89
2023-12-07T07:44:05.393Z,75.44
2023-12-07T07:45:05.350Z,79.79
2023-12-07T07:46:05.412Z,80.09
2023-12-07T07:47:05.431Z,81.88
2023-12-07T07:48:05.549Z,83.28
2023-12-07T07:49:05.657Z,84.63
2023-12-07T07:50:05.510Z,85.75
2023-12-07T07:51:06.500Z,85.97
2023-12-07T07:52:05.529Z,86.29
2023-12-07T07:53:05.512Z,87.41
2023-12-07T07:54:05.495Z,89.84
2023-12-07T07:55:05.641Z,93.19
2023-12-07T07:56:05.513Z,95.96
2023-12-07T07:57:05.576Z,97.08
2023-12-07T07:58:05.557Z,98.99
2023-12-07T07:59:05.506Z,98.76
2023-12-07T08:00:05.524Z,100.79
2023-12-07T08:01:05.664Z,103.25
2023-12-07T08:02:05.518Z,101.82
2023-12-07T08:03:05.531Z,106.24
2023-12-07T08:04:05.529Z,107.06
2023-12-07T08:05:05.508Z,108.21
2023-12-07T08:06:05.550Z,109.22
2023-12-07T08:07:05.519Z,113.45
2023-12-07T08:08:05.545Z,113.99
2023-12-07T08:09:05.514Z,115.31
2023-12-07T08:10:05.544Z,116.52
2023-12-07T08:11:05.523Z,117.29
2023-12-07T08:12:05.520Z,119.24
2023-12-07T08:13:05.607Z,121.65
2023-12-07T08:14:05.525Z,123.67
2023-12-07T08:15:05.524Z,123.58
2023-12-07T08:16:05.528Z,126.32
2023-12-07T08:17:05.550Z,126.02
2023-12-07T08:18:05.677Z,131.31
2023-12-07T08:19:05.753Z,128.42
2023-12-07T08:20:05.723Z,126.38
2023-12-07T08:21:05.744Z,127.22
2023-12-07T08:22:05.799Z,123.60
2023-12-07T08:23:05.760Z,119.68
2023-12-07T08:24:05.884Z,117.42
2023-12-07T08:25:11.224Z,114.92
2023-12-07T08:26:06.810Z,114.99
2023-12-07T08:27:05.808Z,111.85
2023-12-07T08:28:06.156Z,110.37
2023-12-07T08:29:08.404Z,109.24
2023-12-07T08:30:05.810Z,110.21
2023-12-07T08:31:05.865Z,110.29
2023-12-07T08:32:05.803Z,107.57
2023-12-07T08:33:05.903Z,107.49
2023-12-07T08:34:06.006Z,111.73
2023-12-07T08:35:05.854Z,111.41
2023-12-07T08:36:05.802Z,110.71
2023-12-07T08:37:05.830Z,113.52
2023-12-07T08:38:05.811Z,112.53
2023-12-07T08:39:05.804Z,113.87
2023-12-07T08:40:05.829Z,116.12
2023-12-07T08:41:05.822Z,115.25
2023-12-07T08:42:05.852Z,115.55
2023-12-07T08:43:05.994Z,119.35
2023-12-07T08:44:06.562Z,120.42
2023-12-07T08:45:06.595Z,121.65
2023-12-07T08:46:06.619Z,124.12
2023-12-07T08:47:05.803Z,129.38
2023-12-07T08:48:05.911Z,133.43
2023-12-07T08:49:06.021Z,136.97
2023-12-07T08:50:05.875Z,137.31
2023-12-07T08:51:05.812Z,133.91
2023-12-07T08:52:21.670Z,135.88
2023-12-07T08:53:06.861Z,136.06
2023-12-07T08:54:05.898Z,136.42
2023-12-07T08:55:05.846Z,137.59
2023-12-07T08:56:05.812Z,138.28
2023-12-07T08:57:05.815Z,140.36
2023-12-07T08:58:05.959Z,143.89
2023-12-07T08:59:05.842Z,141.18
2023-12-07T09:00:07.040Z,144.21
2023-12-07T09:01:06.757Z,144.75
2023-12-07T09:02:06.786Z,146.78
2023-12-07T09:03:05.975Z,148.33
2023-12-07T09:04:06.003Z,148.57
2023-12-07T09:05:07.617Z,148.31
2023-12-07T09:06:06.061Z,150.25
2023-12-07T09:07:06.022Z,150.51
2023-12-07T09:08:05.922Z,152.69
2023-12-07T09:09:05.947Z,151.95
2023-12-07T09:10:05.981Z,151.29
2023-12-07T09:11:05.946Z,152.97
2023-12-07T09:12:06.402Z,156.69
2023-12-07T09:13:06.041Z,158.43
2023-12-07T09:14:05.919Z,158.74
2023-12-07T09:15:05.935Z,157.16
2023-12-07T09:16:05.955Z,157.77
2023-12-07T09:17:05.919Z,159.17
2023-12-07T09:18:06.190Z,158.81
2023-12-07T09:19:06.093Z,159.23
2023-12-07T09:20:06.006Z,163.91
2023-12-07T09:21:06.608Z,166.21
2023-12-07T09:22:06.142Z,166.70
2023-12-07T09:23:06.226Z,162.78
2023-12-07T09:24:06.262Z,160.50
2023-12-07T09:25:06.560Z,158.91
2023-12-07T09:26:06.425Z,154.79
2023-12-07T09:27:06.459Z,151.01
2023-12-07T09:28:06.628Z,149.75
2023-12-07T09:29:07.133Z,141.84
2023-12-07T09:30:06.647Z,139.29
2023-12-07T09:31:06.732Z,135.41
2023-12-07T09:32:06.827Z,133.70
2023-12-07T09:33:07.871Z,131.93
2023-12-07T09:34:12.515Z,130.60
2023-12-07T09:35:07.923Z,130.66
2023-12-07T09:36:06.955Z,130.72
2023-12-07T09:37:07.643Z,130.33
2023-12-07T09:38:06.886Z,129.09
2023-12-07T09:39:06.961Z,126.48
2023-12-07T09:40:07.016Z,128.21
2023-12-07T09:41:06.903Z,127.95
2023-12-07T09:42:06.978Z,127.14
2023-12-07T09:43:06.905Z,124.75
2023-12-07T09:44:06.927Z,126.46
2023-12-07T09:45:06.976Z,124.39
2023-12-07T09:46:08.066Z,124.51
2023-12-07T09:47:06.983Z,124.67
2023-12-07T09:48:07.646Z,124.96
2023-12-07T09:49:07.121Z,123.88
2023-12-07T09:50:06.969Z,125.94
2023-12-07T09:51:06.975Z,124.91
2023-12-07T09:52:07.012Z,122.93
2023-12-07T09:53:08.951Z,124.57
2023-12-07T09:54:07.007Z,124.16
2023-12-07T09:55:07.125Z,123.37
2023-12-07T09:56:07.114Z,122.67
2023-12-07T09:57:07.171Z,123.82
2023-12-07T09:58:08.482Z,123.26
2023-12-07T09:59:07.306Z,122.23
2023-12-07T10:00:07.376Z,120.93
2023-12-07T10:01:07.648Z,122.53
2023-12-07T10:02:07.528Z,121.81
2023-12-07T10:03:07.583Z,122.22
2023-12-07T10:04:08.188Z,121.99
2023-12-07T10:05:07.771Z,119.84
2023-12-07T10:06:07.682Z,121.06
2023-12-07T10:07:09.045Z,121.62
2023-12-07T10:08:10.555Z,120.50
2023-12-07T10:09:14.751Z,120.07
2023-12-07T10:10:09.167Z,120.20
2023-12-07T10:11:07.804Z,120.24
2023-12-07T10:12:07.816Z,120.66
2023-12-07T10:13:07.814Z,120.20
2023-12-07T10:14:07.808Z,121.06
2023-12-07T10:15:07.799Z,121.28
2023-12-07T10:16:07.874Z,119.04
2023-12-07T10:17:07.800Z,119.48
2023-12-07T10:18:07.936Z,120.21
2023-12-07T10:19:11.977Z,116.38
2023-12-07T10:20:09.703Z,116.43
2023-12-07T10:21:07.804Z,116.80
2023-12-07T10:22:07.884Z,115.00
2023-12-07T10:23:07.830Z,110.47
2023-12-07T10:24:08.620Z,109.09
2023-12-07T10:25:07.907Z,112.18
2023-12-07T10:26:07.811Z,110.66
2023-12-07T10:27:07.823Z,100.79
2023-12-07T10:28:09.273Z,96.89
2023-12-07T10:29:09.079Z,86.84
2023-12-07T10:30:07.858Z,84.71
2023-12-07T10:31:07.854Z,84.78
2023-12-07T10:32:07.846Z,79.27
2023-12-07T10:33:07.860Z,79.89
2023-12-07T10:34:07.914Z,75.21
2023-12-07T10:35:07.826Z,61.88
2023-12-07T10:36:07.960Z,56.52
2023-12-07T10:37:07.870Z,53.46
2023-12-07T10:38:08.681Z,52.67
2023-12-07T10:39:15.064Z,53.05
2023-12-07T10:40:09.131Z,53.11
2023-12-07T10:41:07.958Z,52.55
2023-12-07T10:42:07.858Z,50.16
2023-12-07T10:43:08.087Z,51.62
2023-12-07T10:44:07.880Z,57.48
2023-12-07T10:45:07.842Z,59.73
2023-12-07T10:46:07.924Z,61.58
2023-12-07T10:47:07.836Z,60.65
2023-12-07T10:48:08.056Z,60.77
2023-12-07T10:49:15.584Z,60.41
2023-12-07T10:50:08.924Z,60.62
2023-12-07T10:51:07.857Z,61.67
2023-12-07T10:52:07.936Z,63.51
2023-12-07T10:53:07.895Z,68.81
2023-12-07T10:54:07.863Z,73.64
2023-12-07T10:55:09.185Z,89.47
2023-12-07T10:56:07.843Z,96.06
2023-12-07T10:57:07.835Z,94.44
2023-12-07T10:58:07.854Z,98.99
2023-12-07T10:59:08.668Z,101.25
2023-12-07T11:00:07.913Z,105.48
2023-12-07T11:01:08.111Z,105.89
2023-12-07T11:02:08.158Z,107.16
2023-12-07T11:03:08.224Z,109.99
2023-12-07T11:04:08.235Z,109.86
2023-12-07T11:05:08.266Z,108.45
2023-12-07T11:06:08.265Z,108.69
2023-12-07T11:07:08.384Z,111.18
2023-12-07T11:08:09.337Z,108.22
2023-12-07T11:09:11.024Z,107.00
2023-12-07T11:10:08.345Z,107.11
2023-12-07T11:11:08.339Z,108.14
2023-12-07T11:12:08.333Z,110.03
2023-12-07T11:13:08.483Z,112.87
2023-12-07T11:14:08.424Z,115.84
2023-12-07T11:15:11.556Z,118.64
2023-12-07T11:16:08.352Z,118.72
2023-12-07T11:17:08.381Z,118.80
2023-12-07T11:18:08.398Z,117.15
2023-12-07T11:19:11.955Z,119.66
2023-12-07T11:20:08.402Z,118.77
2023-12-07T11:21:08.338Z,118.98
2023-12-07T11:22:08.563Z,118.38
2023-12-07T11:23:08.421Z,118.06
2023-12-07T11:24:08.349Z,117.79
2023-12-07T11:25:09.738Z,116.51
2023-12-07T11:26:08.353Z,115.51
2023-12-07T11:27:08.358Z,115.67
2023-12-07T11:28:09.188Z,117.19
2023-12-07T11:29:11.162Z,114.97
2023-12-07T11:30:08.359Z,115.00
2023-12-07T11:31:08.551Z,114.97
2023-12-07T11:32:16.758Z,111.79
2023-12-07T11:33:09.397Z,115.07
2023-12-07T11:34:08.400Z,113.81
2023-12-07T11:35:08.363Z,110.82
2023-12-07T11:36:08.415Z,115.27
2023-12-07T11:37:08.497Z,113.54
2023-12-07T11:38:09.158Z,112.42
2023-12-07T11:39:12.678Z,112.91
2023-12-07T11:40:08.391Z,112.92
2023-12-07T11:41:08.360Z,112.99
2023-12-07T11:42:08.355Z,111.72
2023-12-07T11:43:08.430Z,112.52
2023-12-07T11:44:08.357Z,112.46
2023-12-07T11:45:08.358Z,110.95
2023-12-07T11:46:08.395Z,109.89
2023-12-07T11:47:08.420Z,110.05
2023-12-07T11:48:08.568Z,108.66
2023-12-07T11:49:18.654Z,111.21
2023-12-07T11:50:09.417Z,111.30
2023-12-07T11:51:08.377Z,111.49
2023-12-07T11:52:08.385Z,111.72
2023-12-07T11:53:09.113Z,109.90
2023-12-07T11:54:08.378Z,111.64
2023-12-07T11:55:08.436Z,110.81
2023-12-07T11:56:08.395Z,110.18
2023-12-07T11:57:08.422Z,109.27
2023-12-07T11:58:08.402Z,107.95
2023-12-07T11:59:10.394Z,104.36
2023-12-07T12:00:08.381Z,104.56
2023-12-07T12:01:09.154Z,105.22
2023-12-07T12:02:08.449Z,106.09
2023-12-07T12:03:08.392Z,107.89
2023-12-07T12:04:08.419Z,106.73
2023-12-07T12:05:08.660Z,106.67
2023-12-07T12:06:08.410Z,107.11
2023-12-07T12:07:08.407Z,105.88
2023-12-07T12:08:08.392Z,104.46
2023-12-07T12:09:10.713Z,106.14
2023-12-07T12:10:08.407Z,106.02
2023-12-07T12:11:08.394Z,106.13
2023-12-07T12:12:08.411Z,104.29
2023-12-07T12:13:08.416Z,104.54
2023-12-07T12:14:08.419Z,106.59
2023-12-07T12:15:08.391Z,103.60
2023-12-07T12:16:08.507Z,105.39
2023-12-07T12:17:08.412Z,104.95
2023-12-07T12:18:08.482Z,107.09
2023-12-07T12:19:10.457Z,102.71
2023-12-07T12:20:08.562Z,102.72
2023-12-07T12:21:08.681Z,102.85
2023-12-07T12:22:08.972Z,100.38
2023-12-07T12:23:09.178Z,101.05
2023-12-07T12:24:08.412Z,101.62
2023-12-07T12:25:08.420Z,101.97
2023-12-07T12:26:09.121Z,99.20
2023-12-07T12:27:10.086Z,99.70
2023-12-07T12:28:09.112Z,98.54
2023-12-07T12:29:17.175Z,99.04
2023-12-07T12:30:09.414Z,99.07
2023-12-07T12:31:08.434Z,99.11
2023-12-07T12:32:08.421Z,95.23
2023-12-07T12:33:08.436Z,96.39
2023-12-07T12:34:12.145Z,97.15
2023-12-07T12:35:09.420Z,96.35
2023-12-07T12:36:08.760Z,93.75
2023-12-07T12:37:08.559Z,93.39
2023-12-07T12:38:08.411Z,91.14
2023-12-07T12:39:14.646Z,91.05
2023-12-07T12:40:09.466Z,94.76
2023-12-07T12:41:09.186Z,94.26
2023-12-07T12:42:08.407Z,90.03
2023-12-07T12:43:08.436Z,88.75
2023-12-07T12:44:11.574Z,90.00
2023-12-07T12:45:09.419Z,93.85
2023-12-07T12:46:08.478Z,87.54